Time;durP1;ratioP1;P1;durP2;ratioP2;P2;SDS_P1;SDS_P2;PMS_P1;PMS_P2;Temp;Humidity;BMP_temperature;BMP_pressure;BME280_temperature;BME280_humidity;BME280_pressure;Samples;Min_cycle;Max_cycle;Signal;HPM_P1;HPM_P2
2021/12/26 00:00:25;;;;;;;22.75;11.52;;;6.00;99.90;;;;;;4931822;29;20047;-75
2021/12/26 00:02:51;;;;;;;14.57;7.65;;;5.30;99.90;;;;;;4931557;29;20031;-73
2021/12/26 00:05:18;;;;;;;18.08;7.55;;;5.20;99.90;;;;;;4930648;29;20059;-74
2021/12/26 00:07:44;;;;;;;11.85;6.38;;;5.30;99.90;;;;;;4930668;29;20466;-75
2021/12/26 00:10:12;;;;;;;19.38;9.40;;;5.30;99.90;;;;;;4930706;29;20048;-74
2021/12/26 00:12:38;;;;;;;19.98;9.07;;;5.30;99.90;;;;;;4930740;29;20020;-77
2021/12/26 00:15:05;;;;;;;17.60;9.57;;;5.30;99.90;;;;;;4913562;29;20032;-75
2021/12/26 00:17:31;;;;;;;10.50;6.40;;;5.30;99.90;;;;;;4912531;29;20040;-73
2021/12/26 00:19:57;;;;;;;13.02;7.05;;;5.30;99.90;;;;;;4912054;29;20031;-74
2021/12/26 00:22:24;;;;;;;11.27;7.20;;;5.30;99.90;;;;;;4913355;29;20122;-74
2021/12/26 00:24:50;;;;;;;9.23;6.10;;;5.20;99.90;;;;;;4924794;29;20115;-75
2021/12/26 00:27:18;;;;;;;22.70;6.28;;;5.20;99.90;;;;;;4931408;29;20095;-74
2021/12/26 00:29:44;;;;;;;14.52;6.57;;;5.20;99.90;;;;;;4932992;29;20024;-75
2021/12/26 00:32:10;;;;;;;13.63;6.35;;;5.10;99.90;;;;;;4930618;29;20032;-75
2021/12/26 00:34:37;;;;;;;13.52;7.20;;;5.10;99.90;;;;;;4929851;29;20051;-75
2021/12/26 00:37:04;;;;;;;9.65;6.38;;;5.10;99.90;;;;;;4930211;29;20028;-75
2021/12/26 00:39:30;;;;;;;13.68;7.18;;;5.20;99.90;;;;;;4931439;29;20580;-74
2021/12/26 00:41:55;;;;;;;13.48;6.78;;;5.20;99.90;;;;;;4930470;29;20039;-73
2021/12/26 00:44:21;;;;;;;9.35;7.43;;;5.20;99.90;;;;;;4930668;29;20026;-74
2021/12/26 00:46:47;;;;;;;13.35;6.32;;;5.20;99.90;;;;;;4929229;29;20111;-77
2021/12/26 00:49:12;;;;;;;11.38;6.72;;;4.40;99.90;;;;;;4930587;29;20181;-76
2021/12/26 00:51:38;;;;;;;11.40;6.63;;;5.10;99.90;;;;;;4928542;29;20122;-76
2021/12/26 00:54:04;;;;;;;15.23;7.28;;;5.10;99.90;;;;;;4930980;29;20510;-74
2021/12/26 00:56:31;;;;;;;10.90;6.43;;;5.10;99.90;;;;;;4930461;29;20050;-75
2021/12/26 00:58:56;;;;;;;10.30;6.28;;;5.10;99.90;;;;;;4930706;29;20031;-75
2021/12/26 01:01:22;;;;;;;16.90;7.90;;;5.10;99.90;;;;;;4931372;29;20499;-76
2021/12/26 01:03:48;;;;;;;13.75;7.18;;;5.10;99.90;;;;;;4931166;29;20257;-75
2021/12/26 01:06:14;;;;;;;11.63;6.22;;;5.10;99.90;;;;;;4929966;29;20038;-75
2021/12/26 01:08:42;;;;;;;9.02;6.35;;;5.10;99.90;;;;;;4931881;29;20496;-75
2021/12/26 01:11:23;;;;;;;10.50;5.65;;;5.10;99.90;;;;;;4929993;29;20170;-76
2021/12/26 01:13:50;;;;;;;9.20;6.53;;;5.10;99.90;;;;;;4930590;29;20565;-74
2021/12/26 01:16:17;;;;;;;13.75;7.88;;;5.00;99.90;;;;;;4932674;29;20042;-76
2021/12/26 01:18:52;;;;;;;14.93;6.00;;;5.10;99.90;;;;;;4935599;29;20020;-74
2021/12/26 01:21:20;;;;;;;13.43;7.05;;;5.10;99.90;;;;;;4933678;29;20078;-75
2021/12/26 01:23:55;;;;;;;12.60;6.78;;;5.10;99.90;;;;;;4933967;29;20031;-75
2021/12/26 01:26:21;;;;;;;11.48;5.13;;;5.10;99.90;;;;;;4917195;29;20107;-73
2021/12/26 01:28:47;;;;;;;13.23;5.75;;;5.00;99.90;;;;;;4934093;29;20088;-73
2021/12/26 01:31:18;;;;;;;20.60;7.60;;;5.00;99.90;;;;;;4923572;29;20092;-74
2021/12/26 01:33:46;;;;;;;13.50;6.82;;;4.90;99.90;;;;;;4914440;29;20135;-75
2021/12/26 01:36:12;;;;;;;20.63;8.00;;;4.90;99.90;;;;;;4914906;29;20028;-74
2021/12/26 01:38:38;;;;;;;13.75;6.40;;;4.80;99.90;;;;;;4915160;29;20031;-75
2021/12/26 01:41:09;;;;;;;9.60;6.28;;;4.80;99.90;;;;;;4932875;29;20034;-75
2021/12/26 01:43:36;;;;;;;11.10;5.85;;;4.80;99.90;;;;;;4932928;29;20485;-74
2021/12/26 01:46:02;;;;;;;12.13;5.55;;;4.80;99.90;;;;;;4933310;29;20103;-74
2021/12/26 01:48:28;;;;;;;9.38;6.40;;;4.80;99.90;;;;;;4931496;29;20491;-75
2021/12/26 01:50:54;;;;;;;14.93;7.03;;;4.80;99.90;;;;;;4931480;29;20031;-74
2021/12/26 01:53:23;;;;;;;10.45;5.95;;;4.80;99.90;;;;;;4933498;29;20027;-75
2021/12/26 01:55:50;;;;;;;11.63;5.97;;;4.90;99.90;;;;;;4932959;29;20099;-76
2021/12/26 01:58:29;;;;;;;9.90;5.90;;;4.80;99.90;;;;;;4932199;29;20054;-74
2021/12/26 02:01:06;;;;;;;13.90;7.07;;;4.80;99.90;;;;;;4933473;29;20500;-74
2021/12/26 02:03:31;;;;;;;12.75;6.80;;;4.80;99.90;;;;;;4933135;29;20035;-74
2021/12/26 02:05:57;;;;;;;12.70;6.25;;;4.80;99.90;;;;;;4931935;29;20053;-74
2021/12/26 02:08:23;;;;;;;13.02;6.70;;;4.70;99.90;;;;;;4932957;29;20419;-75
2021/12/26 02:10:49;;;;;;;11.68;7.68;;;4.80;99.90;;;;;;4932911;29;20153;-75
2021/12/26 02:13:15;;;;;;;10.68;6.63;;;4.70;99.90;;;;;;4916119;29;20051;-76
2021/12/26 02:15:41;;;;;;;11.25;5.63;;;4.70;99.90;;;;;;4933307;29;20149;-77
2021/12/26 02:18:08;;;;;;;17.30;6.20;;;4.70;99.90;;;;;;4933633;29;20401;-75
2021/12/26 02:21:20;;;;;;;11.65;6.13;;;4.70;99.90;;;;;;4932484;29;20023;-75
2021/12/26 02:23:43;;;;;;;10.90;5.97;;;4.70;99.90;;;;;;4928838;29;20044;-76
2021/12/26 02:28:43;;;;;;;12.70;6.07;;;4.70;99.90;;;;;;4932627;29;20449;-75
2021/12/26 02:31:10;;;;;;;16.38;6.43;;;4.70;99.90;;;;;;4932357;29;20134;-74
2021/12/26 02:33:36;;;;;;;10.00;5.50;;;4.70;99.90;;;;;;4932593;29;20040;-75
2021/12/26 02:36:03;;;;;;;11.77;5.07;;;4.70;99.90;;;;;;4931539;29;20038;-74
2021/12/26 02:38:28;;;;;;;6.90;4.85;;;4.70;99.90;;;;;;4915435;29;20069;-77
2021/12/26 02:40:57;;;;;;;11.48;5.93;;;4.70;99.90;;;;;;4915735;29;20063;-72
2021/12/26 02:43:24;;;;;;;11.50;6.45;;;4.80;99.90;;;;;;4932698;29;20118;-72
2021/12/26 02:45:50;;;;;;;7.72;5.20;;;4.80;99.90;;;;;;4915445;29;20238;-72
2021/12/26 02:48:17;;;;;;;18.58;6.47;;;4.80;99.90;;;;;;4916241;29;20036;-72
2021/12/26 02:50:44;;;;;;;8.20;4.93;;;4.80;99.90;;;;;;4934213;29;20047;-72
2021/12/26 02:53:15;;;;;;;14.43;8.27;;;4.90;99.90;;;;;;4916543;29;20024;-73
2021/12/26 02:55:41;;;;;;;11.35;5.90;;;4.90;99.90;;;;;;4916270;29;20510;-71
2021/12/26 02:58:09;;;;;;;12.18;5.55;;;4.90;99.90;;;;;;4917036;29;20032;-72
2021/12/26 03:00:51;;;;;;;9.35;5.03;;;4.90;99.90;;;;;;4916354;29;20032;-73
2021/12/26 03:03:17;;;;;;;7.35;5.45;;;5.00;99.90;;;;;;4915411;29;20038;-73
2021/12/26 03:05:45;;;;;;;7.15;4.90;;;5.10;99.90;;;;;;4932390;29;20111;-72
2021/12/26 03:08:16;;;;;;;6.05;4.70;;;5.00;99.90;;;;;;4932987;29;20036;-72
2021/12/26 03:10:43;;;;;;;9.00;5.72;;;5.00;99.90;;;;;;4914747;29;21047;-75
2021/12/26 03:13:10;;;;;;;9.00;5.53;;;4.90;99.90;;;;;;4914866;29;20559;-74
2021/12/26 03:15:38;;;;;;;7.07;4.55;;;4.80;99.90;;;;;;4932235;29;20039;-71
2021/12/26 03:18:05;;;;;;;13.05;5.00;;;4.80;99.90;;;;;;4915103;29;20024;-73
2021/12/26 03:20:37;;;;;;;8.23;5.38;;;4.90;99.90;;;;;;4931251;29;20028;-73
2021/12/26 03:23:04;;;;;;;10.70;5.75;;;4.80;99.90;;;;;;4931721;29;20396;-73
2021/12/26 03:25:32;;;;;;;10.55;5.00;;;4.80;99.90;;;;;;4949067;29;20032;-74
2021/12/26 03:27:58;;;;;;;9.32;5.15;;;4.80;99.90;;;;;;4952278;29;20514;-73
2021/12/26 03:30:26;;;;;;;8.52;4.43;;;4.80;99.90;;;;;;4935177;29;20114;-74
2021/12/26 03:32:53;;;;;;;10.27;5.10;;;5.00;99.90;;;;;;4935141;28;20039;-72
2021/12/26 03:35:21;;;;;;;8.07;5.05;;;4.90;99.90;;;;;;4952711;29;20024;-76
2021/12/26 03:37:46;;;;;;;9.27;5.43;;;4.90;99.90;;;;;;4934836;29;20027;-74
2021/12/26 03:40:12;;;;;;;8.07;4.85;;;4.90;99.90;;;;;;4951961;28;20045;-74
2021/12/26 03:42:39;;;;;;;9.45;5.18;;;6.30;99.90;;;;;;4952942;29;20102;-74
2021/12/26 03:45:10;;;;;;;5.68;3.55;;;4.90;99.90;;;;;;4952980;29;20027;-73
2021/12/26 03:47:37;;;;;;;8.27;3.88;;;4.80;99.90;;;;;;4952911;29;20389;-75
2021/12/26 03:50:04;;;;;;;7.70;3.85;;;4.80;99.90;;;;;;4952485;29;20023;-73
2021/12/26 03:52:30;;;;;;;21.92;5.72;;;4.80;99.90;;;;;;4934791;29;20357;-74
2021/12/26 03:54:56;;;;;;;10.70;5.03;;;4.80;99.90;;;;;;4952427;29;20034;-72
2021/12/26 03:57:22;;;;;;;9.20;4.53;;;4.80;99.90;;;;;;4952949;29;20026;-74
2021/12/26 03:59:48;;;;;;;7.35;3.72;;;4.80;99.90;;;;;;4935335;29;20027;-74
2021/12/26 04:02:15;;;;;;;7.15;4.57;;;4.80;99.90;;;;;;4952826;29;20265;-73
2021/12/26 04:04:42;;;;;;;10.82;5.28;;;6.30;99.90;;;;;;4952853;29;20291;-74
2021/12/26 04:07:09;;;;;;;8.05;4.90;;;4.70;99.90;;;;;;4952276;29;20031;-74
2021/12/26 04:09:35;;;;;;;8.52;4.88;;;4.90;99.90;;;;;;4953076;29;20072;-73
2021/12/26 04:12:01;;;;;;;6.30;4.28;;;4.70;99.90;;;;;;4952399;29;20023;-74
2021/12/26 04:14:27;;;;;;;6.18;4.20;;;4.70;99.90;;;;;;4952595;29;20086;-73
2021/12/26 04:16:53;;;;;;;6.35;4.07;;;4.70;99.90;;;;;;4935305;29;20024;-73
2021/12/26 04:19:19;;;;;;;5.38;3.92;;;4.70;99.90;;;;;;4952562;29;20031;-73
2021/12/26 04:21:45;;;;;;;8.98;3.83;;;4.70;99.90;;;;;;4951868;29;20031;-74
2021/12/26 04:24:11;;;;;;;9.20;4.75;;;4.70;99.90;;;;;;4952158;29;20027;-73
2021/12/26 04:26:37;;;;;;;4.97;3.60;;;4.60;99.90;;;;;;4952204;29;20607;-74
2021/12/26 04:29:03;;;;;;;10.60;3.95;;;4.60;99.90;;;;;;4952214;29;20050;-73
2021/12/26 04:31:29;;;;;;;7.15;4.68;;;4.60;99.90;;;;;;4952179;29;20027;-74
2021/12/26 04:33:55;;;;;;;8.25;5.03;;;4.70;99.90;;;;;;4952086;29;20066;-73
2021/12/26 04:36:21;;;;;;;5.35;3.97;;;4.80;99.90;;;;;;4952248;29;20492;-74
2021/12/26 04:38:47;;;;;;;15.98;5.03;;;5.40;99.90;;;;;;4951715;29;20054;-74
2021/12/26 04:41:14;;;;;;;9.05;5.00;;;4.80;99.90;;;;;;4952307;29;20016;-74
2021/12/26 04:43:40;;;;;;;6.15;3.95;;;4.80;99.90;;;;;;4934645;29;20396;-73
2021/12/26 04:46:08;;;;;;;12.25;3.90;;;4.80;99.90;;;;;;4950508;29;20023;-73
2021/12/26 04:48:40;;;;;;;6.95;4.03;;;4.80;99.90;;;;;;4951932;29;20109;-73
2021/12/26 04:51:08;;;;;;;4.88;2.63;;;4.70;99.90;;;;;;4951600;29;20031;-72
2021/12/26 04:53:35;;;;;;;4.70;3.05;;;4.80;99.90;;;;;;4952125;29;20023;-73
2021/12/26 04:56:01;;;;;;;7.20;4.28;;;4.80;99.90;;;;;;4951771;29;20023;-73
2021/12/26 04:58:27;;;;;;;6.47;4.15;;;4.80;99.90;;;;;;4951793;29;20028;-73
2021/12/26 05:00:52;;;;;;;9.18;5.35;;;4.80;99.90;;;;;;4951637;29;20027;-72
2021/12/26 05:03:19;;;;;;;13.45;4.25;;;4.90;99.90;;;;;;4951530;29;20384;-73
2021/12/26 05:05:45;;;;;;;3.58;3.25;;;4.80;99.90;;;;;;4951746;29;20475;-73
2021/12/26 05:08:11;;;;;;;21.65;5.03;;;4.80;99.90;;;;;;4951406;29;20031;-76
2021/12/26 05:10:39;;;;;;;8.93;4.35;;;4.70;99.90;;;;;;4950399;29;20023;-73
2021/12/26 05:13:06;;;;;;;3.88;3.03;;;4.70;99.90;;;;;;4951763;29;20034;-74
2021/12/26 05:15:32;;;;;;;8.60;4.13;;;4.70;99.90;;;;;;4950352;29;20392;-74
2021/12/26 05:17:58;;;;;;;6.30;3.80;;;4.70;99.90;;;;;;4934283;29;20031;-74
2021/12/26 05:20:26;;;;;;;5.60;3.55;;;4.80;99.90;;;;;;4951474;29;20034;-73
2021/12/26 05:22:54;;;;;;;5.55;4.07;;;4.70;99.90;;;;;;4951208;29;20066;-74
2021/12/26 05:25:22;;;;;;;3.72;3.35;;;4.80;99.90;;;;;;4933924;29;20503;-74
2021/12/26 05:27:48;;;;;;;7.75;3.60;;;4.80;99.90;;;;;;4933846;29;20065;-74
2021/12/26 05:30:16;;;;;;;6.85;4.15;;;4.90;99.90;;;;;;4951824;29;20019;-73
2021/12/26 05:32:43;;;;;;;5.20;3.85;;;4.80;99.90;;;;;;4933701;29;20030;-73
2021/12/26 05:35:13;;;;;;;6.78;3.78;;;4.80;99.90;;;;;;4951266;29;20051;-74
2021/12/26 05:37:39;;;;;;;6.25;4.18;;;4.80;99.90;;;;;;4933727;29;20020;-74
2021/12/26 05:40:07;;;;;;;4.90;4.03;;;4.90;99.90;;;;;;4934591;29;20035;-73
2021/12/26 05:42:34;;;;;;;6.70;3.90;;;4.80;99.90;;;;;;4951408;29;20480;-73
2021/12/26 05:45:00;;;;;;;6.03;3.83;;;4.80;99.90;;;;;;4951473;29;20031;-73
2021/12/26 05:47:27;;;;;;;5.30;3.63;;;4.80;99.90;;;;;;4933911;29;20047;-74
2021/12/26 05:49:53;;;;;;;5.70;3.83;;;4.80;99.90;;;;;;4934098;29;20059;-73
2021/12/26 05:52:19;;;;;;;8.10;3.83;;;4.90;99.90;;;;;;4951079;29;20498;-73
2021/12/26 05:54:46;;;;;;;14.57;2.60;;;4.90;99.90;;;;;;4951301;29;20031;-73
2021/12/26 05:57:12;;;;;;;5.05;3.30;;;4.90;99.90;;;;;;4951239;29;20042;-73
2021/12/26 05:59:37;;;;;;;18.02;3.53;;;4.90;99.90;;;;;;4951348;29;20023;-73
2021/12/26 06:02:04;;;;;;;5.20;3.45;;;4.80;99.90;;;;;;4951320;28;20235;-72
2021/12/26 06:04:30;;;;;;;5.90;3.95;;;4.80;99.90;;;;;;4954015;29;20038;-73
2021/12/26 06:06:56;;;;;;;8.35;3.85;;;4.80;99.90;;;;;;4954578;29;20473;-73
2021/12/26 06:09:22;;;;;;;7.55;5.63;;;4.80;99.90;;;;;;4937342;29;20043;-73
2021/12/26 06:11:47;;;;;;;5.82;4.15;;;4.80;99.90;;;;;;4954618;29;20034;-73
2021/12/26 06:14:13;;;;;;;4.57;3.45;;;4.80;99.90;;;;;;4954537;29;20099;-73
2021/12/26 06:16:39;;;;;;;6.63;3.97;;;4.80;99.90;;;;;;4954869;29;20019;-73
2021/12/26 06:19:05;;;;;;;6.85;5.72;;;4.90;99.90;;;;;;4954745;29;20504;-73
2021/12/26 06:21:31;;;;;;;7.15;3.97;;;4.90;99.90;;;;;;4954522;29;20027;-73
2021/12/26 06:23:57;;;;;;;10.68;4.60;;;4.90;99.90;;;;;;4954240;29;20015;-73
2021/12/26 06:26:25;;;;;;;7.20;4.38;;;4.90;99.90;;;;;;4954881;29;20468;-74
2021/12/26 06:28:51;;;;;;;11.38;4.22;;;4.90;99.90;;;;;;4954842;29;20039;-74
2021/12/26 06:31:17;;;;;;;11.27;4.72;;;5.00;99.90;;;;;;4937424;29;20030;-73
2021/12/26 06:33:43;;;;;;;27.35;5.15;;;5.00;99.90;;;;;;4954383;28;20058;-75
2021/12/26 06:36:10;;;;;;;9.93;4.30;;;5.10;99.90;;;;;;4954357;29;20102;-74
2021/12/26 06:38:36;;;;;;;7.43;4.45;;;5.00;99.90;;;;;;4954006;29;20506;-73
2021/12/26 06:41:03;;;;;;;17.55;5.50;;;5.00;99.90;;;;;;4936755;29;20432;-73
2021/12/26 06:43:30;;;;;;;8.40;3.63;;;5.00;99.90;;;;;;4954317;29;20508;-74
2021/12/26 06:45:56;;;;;;;14.90;6.53;;;5.00;99.90;;;;;;4954310;29;20030;-73
2021/12/26 06:48:22;;;;;;;8.90;4.72;;;5.00;99.90;;;;;;4954069;29;20035;-75
2021/12/26 06:50:51;;;;;;;13.70;4.80;;;5.00;99.90;;;;;;4954357;29;20023;-74
2021/12/26 06:53:17;;;;;;;9.48;5.18;;;5.00;99.90;;;;;;4938104;29;20038;-73
2021/12/26 06:55:44;;;;;;;12.70;5.55;;;5.00;99.90;;;;;;4954576;29;20504;-76
2021/12/26 06:58:10;;;;;;;11.70;4.85;;;5.00;99.90;;;;;;4954048;29;20063;-75
2021/12/26 07:00:36;;;;;;;21.70;4.97;;;5.00;99.90;;;;;;4953989;29;20023;-73
2021/12/26 07:03:03;;;;;;;8.15;5.28;;;5.00;99.90;;;;;;4953879;29;20035;-75
2021/12/26 07:05:29;;;;;;;11.75;4.88;;;5.00;99.90;;;;;;4954190;29;20019;-75
2021/12/26 07:07:55;;;;;;;17.13;5.82;;;5.00;99.90;;;;;;4953551;29;20365;-75
2021/12/26 07:10:20;;;;;;;8.05;4.97;;;5.00;99.90;;;;;;4954351;29;20519;-74
2021/12/26 07:12:47;;;;;;;20.23;5.85;;;5.00;99.90;;;;;;4954035;29;20039;-74
2021/12/26 07:15:13;;;;;;;10.10;5.10;;;5.00;99.90;;;;;;4936339;29;20050;-73
2021/12/26 07:17:40;;;;;;;16.85;6.80;;;5.00;99.90;;;;;;4953872;29;20034;-73
2021/12/26 07:20:08;;;;;;;9.80;6.25;;;5.10;99.90;;;;;;4954019;29;20015;-74
2021/12/26 07:22:35;;;;;;;18.30;5.80;;;5.10;99.90;;;;;;4953231;29;20034;-74
2021/12/26 07:25:01;;;;;;;18.27;5.68;;;5.10;99.90;;;;;;4953609;29;20026;-75
2021/12/26 07:27:27;;;;;;;11.90;5.63;;;5.00;99.90;;;;;;4936237;29;20024;-73
2021/12/26 07:29:53;;;;;;;12.40;6.22;;;5.00;99.90;;;;;;4953555;29;20051;-75
2021/12/26 07:32:19;;;;;;;13.40;4.90;;;5.00;99.90;;;;;;4953421;29;20034;-75
2021/12/26 07:34:45;;;;;;;8.98;4.45;;;5.00;99.90;;;;;;4953277;28;20138;-75
2021/12/26 07:37:10;;;;;;;7.07;4.05;;;5.00;99.90;;;;;;4953678;29;20024;-74
2021/12/26 07:39:36;;;;;;;26.33;5.88;;;5.10;99.90;;;;;;4953592;29;20035;-74
2021/12/26 07:42:03;;;;;;;10.90;5.45;;;5.10;99.90;;;;;;4953203;29;20083;-74
2021/12/26 07:44:29;;;;;;;15.98;5.45;;;5.20;99.90;;;;;;4935966;29;20027;-73
2021/12/26 07:46:55;;;;;;;20.65;6.97;;;5.20;99.90;;;;;;4953180;29;20025;-74
2021/12/26 07:49:23;;;;;;;16.58;6.05;;;5.20;99.90;;;;;;4953106;29;20043;-74
2021/12/26 07:51:50;;;;;;;13.32;5.43;;;5.20;99.90;;;;;;4952869;29;20413;-73
2021/12/26 07:54:16;;;;;;;9.48;5.60;;;5.30;99.90;;;;;;4953084;29;20020;-76
2021/12/26 07:56:46;;;;;;;25.23;7.18;;;5.30;99.90;;;;;;4953241;29;20027;-76
2021/12/26 07:59:11;;;;;;;13.35;6.38;;;5.50;99.90;;;;;;4953277;29;20500;-75
2021/12/26 08:01:38;;;;;;;13.00;6.03;;;5.60;99.90;;;;;;4953547;29;20027;-74
2021/12/26 08:04:05;;;;;;;13.85;5.70;;;5.60;99.90;;;;;;4953098;29;20037;-75
2021/12/26 08:06:31;;;;;;;12.43;5.65;;;5.50;99.90;;;;;;4952685;29;20054;-74
2021/12/26 08:08:58;;;;;;;18.08;6.93;;;5.40;99.90;;;;;;4952837;29;20050;-74
2021/12/26 08:11:24;;;;;;;13.35;6.05;;;5.40;99.90;;;;;;4952756;29;20034;-74
2021/12/26 08:13:50;;;;;;;46.30;7.35;;;5.40;99.90;;;;;;4952844;29;20086;-74
2021/12/26 08:16:15;;;;;;;14.35;6.07;;;5.30;99.90;;;;;;4953014;29;20027;-75
2021/12/26 08:18:42;;;;;;;37.63;5.00;;;5.30;99.90;;;;;;4952511;29;20023;-75
2021/12/26 08:21:09;;;;;;;37.25;5.30;;;5.40;99.90;;;;;;4952574;29;20028;-75
2021/12/26 08:23:35;;;;;;;13.45;5.97;;;5.60;99.90;;;;;;4952869;29;20543;-74
2021/12/26 08:26:02;;;;;;;11.68;4.72;;;5.60;99.90;;;;;;4935021;29;20110;-73
2021/12/26 08:28:28;;;;;;;11.55;6.55;;;5.60;99.90;;;;;;4952977;29;20399;-73
2021/12/26 08:30:54;;;;;;;39.60;7.25;;;5.60;99.90;;;;;;4952884;29;20027;-74
2021/12/26 08:33:20;;;;;;;18.95;8.05;;;5.70;99.90;;;;;;4936931;29;20145;-73
2021/12/26 08:35:47;;;;;;;14.15;5.95;;;5.80;99.90;;;;;;4952649;29;20035;-73
2021/12/26 08:38:15;;;;;;;15.45;5.85;;;5.80;99.90;;;;;;4952166;29;20019;-74
2021/12/26 08:40:42;;;;;;;18.05;7.18;;;5.80;99.90;;;;;;4952584;29;20444;-73
2021/12/26 08:43:08;;;;;;;14.80;6.40;;;5.80;99.90;;;;;;4951291;29;20388;-74
2021/12/26 08:45:34;;;;;;;13.18;6.25;;;5.80;99.90;;;;;;4923617;29;20028;-75
2021/12/26 08:48:00;;;;;;;16.15;6.70;;;5.70;99.90;;;;;;4914303;29;20044;-76
2021/12/26 08:50:27;;;;;;;23.08;8.55;;;5.70;99.90;;;;;;4923314;29;20050;-78
2021/12/26 08:52:53;;;;;;;15.88;6.95;;;5.80;99.90;;;;;;4933179;29;20416;-76
2021/12/26 08:55:20;;;;;;;18.50;7.15;;;5.80;99.90;;;;;;4933523;29;20088;-75
2021/12/26 08:57:47;;;;;;;13.75;7.30;;;6.00;99.90;;;;;;4917605;29;20043;-77
2021/12/26 09:00:15;;;;;;;16.33;6.80;;;6.10;99.90;;;;;;4935946;29;20028;-75
2021/12/26 09:02:41;;;;;;;17.35;8.10;;;6.20;99.90;;;;;;4940950;29;20511;-78
2021/12/26 09:05:07;;;;;;;15.70;8.73;;;6.10;99.90;;;;;;4939807;29;20031;-75
2021/12/26 09:07:33;;;;;;;15.55;7.90;;;6.10;99.90;;;;;;4940523;29;20024;-74
2021/12/26 09:10:00;;;;;;;14.48;8.30;;;6.20;99.90;;;;;;4940618;29;20031;-81
2021/12/26 09:12:26;;;;;;;11.07;6.70;;;6.20;99.90;;;;;;4937709;29;20111;-75
2021/12/26 09:14:52;;;;;;;13.43;7.72;;;6.20;99.90;;;;;;4934517;29;20063;-77
2021/12/26 09:17:18;;;;;;;12.02;6.30;;;6.30;99.90;;;;;;4933506;29;20034;-76
2021/12/26 09:19:44;;;;;;;16.90;7.38;;;6.50;99.90;;;;;;4935216;29;20016;-75
2021/12/26 09:22:13;;;;;;;12.65;7.75;;;6.60;99.90;;;;;;4934822;29;20046;-77
2021/12/26 09:24:39;;;;;;;14.77;7.93;;;6.60;99.90;;;;;;4934584;29;20079;-80
2021/12/26 09:27:05;;;;;;;14.77;7.10;;;6.80;99.90;;;;;;4937630;29;20131;-76
2021/12/26 09:29:31;;;;;;;18.23;8.10;;;6.80;99.90;;;;;;4934879;29;20501;-74
2021/12/26 09:31:56;;;;;;;16.63;7.25;;;6.90;99.90;;;;;;4955906;29;20354;-77
2021/12/26 09:34:24;;;;;;;15.68;7.47;;;6.90;99.90;;;;;;4959374;29;20416;-80
2021/12/26 09:36:50;;;;;;;13.23;7.10;;;7.00;99.90;;;;;;4932869;29;20064;-74
2021/12/26 09:39:17;;;;;;;11.35;6.65;;;7.10;99.90;;;;;;4943097;29;20035;-78
2021/12/26 09:41:44;;;;;;;11.13;6.32;;;7.10;99.90;;;;;;4925628;29;20020;-77
2021/12/26 09:44:10;;;;;;;15.25;6.90;;;7.20;99.90;;;;;;4906925;29;20417;-79
2021/12/26 09:46:36;;;;;;;11.40;6.55;;;7.30;99.90;;;;;;4921755;29;20085;-76
2021/12/26 09:49:03;;;;;;;14.80;7.10;;;7.20;99.90;;;;;;4923229;29;20044;-75
2021/12/26 09:51:29;;;;;;;10.77;5.93;;;7.30;99.90;;;;;;4922097;29;20028;-78
2021/12/26 09:53:55;;;;;;;11.95;6.20;;;7.30;99.90;;;;;;4922019;29;20061;-78
2021/12/26 09:56:21;;;;;;;11.77;6.15;;;7.30;99.90;;;;;;4940284;29;20114;-77
2021/12/26 09:59:04;;;;;;;29.33;6.43;;;7.30;99.90;;;;;;4937487;29;20238;-76
2021/12/26 10:01:37;;;;;;;13.90;5.30;;;7.20;99.90;;;;;;4938151;29;20095;-78
2021/12/26 10:04:20;;;;;;;11.85;7.05;;;7.20;99.90;;;;;;4935749;29;20031;-76
2021/12/26 10:06:48;;;;;;;19.92;7.00;;;7.20;99.90;;;;;;4939076;29;20070;-75
2021/12/26 10:09:14;;;;;;;12.50;6.20;;;7.20;99.90;;;;;;4937662;29;20055;-76
2021/12/26 10:11:42;;;;;;;9.07;5.38;;;7.20;99.90;;;;;;4941192;29;20056;-74
2021/12/26 10:14:16;;;;;;;10.82;5.50;;;7.20;99.90;;;;;;4940264;29;20497;-73
2021/12/26 10:16:46;;;;;;;10.98;5.90;;;7.30;99.90;;;;;;4937991;29;20020;-74
2021/12/26 10:19:12;;;;;;;11.02;5.35;;;7.40;99.90;;;;;;4929111;29;20115;-74
2021/12/26 10:21:48;;;;;;;13.75;5.07;;;7.60;99.90;;;;;;4922194;29;20064;-74
2021/12/26 10:24:24;;;;;;;12.07;6.88;;;7.60;99.90;;;;;;4937904;29;20032;-75
2021/12/26 10:26:56;;;;;;;12.25;6.55;;;7.70;99.90;;;;;;4937947;29;20024;-75
2021/12/26 10:29:33;;;;;;;9.93;5.55;;;7.80;99.90;;;;;;4924386;29;20115;-74
2021/12/26 10:32:11;;;;;;;11.65;6.20;;;7.90;99.90;;;;;;4921497;29;20207;-73
2021/12/26 10:34:40;;;;;;;9.43;5.15;;;8.00;99.90;;;;;;4937174;29;20537;-74
2021/12/26 10:37:15;;;;;;;8.23;4.07;;;8.00;99.90;;;;;;4936833;29;20277;-74
2021/12/26 10:39:53;;;;;;;9.15;4.82;;;8.00;99.90;;;;;;4937550;29;20264;-75
2021/12/26 10:42:31;;;;;;;8.35;5.43;;;7.90;99.90;;;;;;4919375;29;20024;-75
2021/12/26 10:45:00;;;;;;;17.85;7.00;;;7.90;99.90;;;;;;4923813;29;20062;-75
2021/12/26 10:47:33;;;;;;;12.98;7.53;;;7.90;99.90;;;;;;4919873;29;20200;-73
2021/12/26 10:50:14;;;;;;;8.70;5.18;;;8.20;99.90;;;;;;4930861;29;20405;-78
2021/12/26 10:52:53;;;;;;;7.43;4.80;;;8.30;99.90;;;;;;4913656;29;20033;-78
2021/12/26 10:55:26;;;;;;;11.10;5.65;;;8.20;99.90;;;;;;4916566;29;20028;-77
2021/12/26 10:57:52;;;;;;;8.23;4.70;;;8.10;99.90;;;;;;4913602;29;20039;-77
2021/12/26 11:00:33;;;;;;;7.93;4.25;;;8.10;99.90;;;;;;4912630;29;20031;-77
2021/12/26 11:03:05;;;;;;;7.63;4.00;;;8.10;99.90;;;;;;4915437;29;20032;-78
2021/12/26 11:05:38;;;;;;;7.18;4.32;;;8.20;99.90;;;;;;4915926;29;20485;-75
2021/12/26 11:08:12;;;;;;;7.38;4.45;;;8.20;99.90;;;;;;4921552;29;20130;-73
2021/12/26 11:10:51;;;;;;;5.07;3.95;;;8.20;99.90;;;;;;4939061;29;20106;-79
2021/12/26 11:13:24;;;;;;;7.60;4.53;;;8.20;99.90;;;;;;4917165;29;20043;-78
2021/12/26 11:15:55;;;;;;;8.38;4.28;;;8.30;99.90;;;;;;4920982;29;20032;-77
2021/12/26 11:18:21;;;;;;;10.38;4.25;;;8.30;99.90;;;;;;4906598;29;20389;-77
2021/12/26 11:20:53;;;;;;;3.88;3.40;;;8.40;99.90;;;;;;4935480;29;20031;-74
2021/12/26 11:23:32;;;;;;;6.43;4.43;;;8.30;99.90;;;;;;4931873;29;20059;-75
2021/12/26 11:26:03;;;;;;;5.90;4.18;;;8.10;99.90;;;;;;4942077;29;20043;-75
2021/12/26 11:28:33;;;;;;;10.00;5.95;;;8.20;99.90;;;;;;4920814;29;20048;-74
2021/12/26 11:31:05;;;;;;;7.90;4.22;;;8.10;99.90;;;;;;4937323;29;20031;-75
2021/12/26 11:33:31;;;;;;;7.95;3.88;;;8.00;99.90;;;;;;4916500;29;20055;-76
2021/12/26 11:35:58;;;;;;;5.93;4.50;;;8.00;99.90;;;;;;4933858;29;20060;-76
2021/12/26 11:38:40;;;;;;;6.68;4.75;;;8.00;99.90;;;;;;5105195;27;20379;-75
2021/12/26 11:41:16;;;;;;;11.48;4.28;;;8.00;99.90;;;;;;5103988;28;20032;-77
2021/12/26 11:43:52;;;;;;;6.22;3.90;;;8.10;99.90;;;;;;5103360;28;20028;-74
2021/12/26 11:46:24;;;;;;;7.78;4.10;;;8.10;99.90;;;;;;5105026;28;20407;-76
2021/12/26 11:49:37;;;;;;;11.95;6.80;;;8.10;99.90;;;;;;5103836;28;20492;-74
2021/12/26 11:52:30;;;;;;;8.13;4.80;;;8.30;99.90;;;;;;5099375;28;20039;-75
2021/12/26 11:55:34;;;;;;;7.55;4.30;;;8.20;99.90;;;;;;5103628;28;20531;-73
2021/12/26 11:58:20;;;;;;;8.93;4.63;;;8.20;99.90;;;;;;5100160;28;20085;-73
2021/12/26 12:00:53;;;;;;;7.38;4.50;;;8.20;99.90;;;;;;5103760;28;20027;-76
2021/12/26 12:03:26;;;;;;;8.68;4.88;;;8.30;99.90;;;;;;5103122;28;20057;-76
2021/12/26 12:05:52;;;;;;;5.20;4.05;;;8.20;99.90;;;;;;5104240;28;20054;-74
2021/12/26 12:08:29;;;;;;;10.07;5.07;;;8.10;99.90;;;;;;5103273;28;20027;-74
2021/12/26 12:10:55;;;;;;;5.57;3.83;;;8.10;99.90;;;;;;5103258;28;20198;-82
2021/12/26 12:13:27;;;;;;;6.65;4.50;;;8.10;99.90;;;;;;5105954;28;20124;-74
2021/12/26 12:16:01;;;;;;;5.65;4.15;;;8.10;99.90;;;;;;5105435;28;20032;-76
2021/12/26 12:18:46;;;;;;;6.57;4.45;;;8.00;99.90;;;;;;5105196;28;20484;-76
2021/12/26 12:21:16;;;;;;;7.25;5.38;;;8.00;99.90;;;;;;5102852;28;20115;-79
2021/12/26 12:24:19;;;;;;;8.90;5.38;;;8.10;99.90;;;;;;5104404;28;20028;-76
2021/12/26 12:26:50;;;;;;;7.18;3.60;;;8.10;99.90;;;;;;5103275;28;20027;-74
2021/12/26 12:29:24;;;;;;;6.68;4.22;;;8.10;99.90;;;;;;5103500;28;20016;-75
2021/12/26 12:32:21;;;;;;;8.13;4.25;;;8.10;99.90;;;;;;5104686;28;20038;-77
2021/12/26 12:35:04;;;;;;;9.85;5.90;;;8.20;99.90;;;;;;5087855;28;20123;-76
2021/12/26 12:37:40;;;;;;;15.55;7.13;;;8.20;99.90;;;;;;5103276;28;20694;-73
2021/12/26 12:40:30;;;;;;;13.70;7.93;;;8.20;99.90;;;;;;5106098;28;20027;-74
2021/12/26 12:43:09;;;;;;;10.13;4.55;;;8.20;99.90;;;;;;5103184;28;20073;-73
2021/12/26 12:46:05;;;;;;;8.50;5.03;;;8.20;99.90;;;;;;5104848;28;20498;-75
2021/12/26 12:48:32;;;;;;;7.78;4.82;;;8.30;99.90;;;;;;5097449;28;20028;-75
2021/12/26 12:51:02;;;;;;;12.38;6.43;;;8.30;99.90;;;;;;5088636;28;20016;-75
2021/12/26 12:53:37;;;;;;;12.30;5.00;;;8.30;99.90;;;;;;5088469;28;20381;-74
2021/12/26 12:56:03;;;;;;;10.20;5.43;;;8.40;99.90;;;;;;5088572;28;20111;-74
2021/12/26 12:58:32;;;;;;;10.48;5.32;;;8.40;99.90;;;;;;5090010;28;20120;-74
2021/12/26 13:01:02;;;;;;;7.27;4.67;;;8.40;99.90;;;;;;5090362;28;20024;-76